createdAt,value
2017-10-16T00:02:08.527Z,10.70
2017-10-16T00:04:36.107Z,10.70
2017-10-16T00:07:03.667Z,10.60
2017-10-16T00:09:31.229Z,10.50
2017-10-16T00:11:58.825Z,10.50
2017-10-16T00:14:26.435Z,10.50
2017-10-16T00:16:54.026Z,10.50
2017-10-16T00:19:21.641Z,10.50
2017-10-16T00:21:49.202Z,10.40
2017-10-16T00:24:16.756Z,10.50
2017-10-16T00:26:44.339Z,10.50
2017-10-16T00:29:11.932Z,10.50
2017-10-16T00:31:39.504Z,10.40
2017-10-16T00:34:07.126Z,10.40
2017-10-16T00:36:34.709Z,10.40
2017-10-16T00:39:02.266Z,10.30
2017-10-16T00:41:29.869Z,10.30
2017-10-16T00:43:57.437Z,10.30
2017-10-16T00:46:25.753Z,10.20
2017-10-16T00:48:53.347Z,10.20
2017-10-16T00:51:20.899Z,10.20
2017-10-16T00:53:48.482Z,10.10
2017-10-16T00:56:16.882Z,10.00
2017-10-16T00:58:44.475Z,10.00
2017-10-16T01:01:13.329Z,10.00
2017-10-16T01:03:40.934Z,10.00
2017-10-16T01:06:08.549Z,9.90
2017-10-16T01:08:36.113Z,9.80
2017-10-16T01:11:03.709Z,9.80
2017-10-16T01:13:32.041Z,9.80
2017-10-16T01:15:59.605Z,9.70
2017-10-16T01:18:27.198Z,9.80
2017-10-16T01:20:54.813Z,9.80
2017-10-16T01:23:22.412Z,9.80
2017-10-16T01:25:50.035Z,9.80
2017-10-16T01:28:17.642Z,9.80
2017-10-16T01:30:45.236Z,9.80
2017-10-16T01:33:13.647Z,9.80
2017-10-16T01:35:41.244Z,9.80
2017-10-16T01:38:08.816Z,9.80
2017-10-16T01:40:36.457Z,9.80
2017-10-16T01:43:04.046Z,9.70
2017-10-16T01:45:31.619Z,9.80
2017-10-16T01:47:59.221Z,9.80
2017-10-16T01:50:26.814Z,9.70
2017-10-16T01:52:54.413Z,9.70
2017-10-16T01:55:22.773Z,9.70
2017-10-16T01:57:50.394Z,9.70
2017-10-16T02:00:17.961Z,9.70
2017-10-16T02:02:45.558Z,9.70
2017-10-16T02:05:13.902Z,9.60
2017-10-16T02:07:41.456Z,9.60
2017-10-16T02:10:09.116Z,9.60
2017-10-16T02:12:36.676Z,9.60
2017-10-16T02:15:04.246Z,9.60
2017-10-16T02:17:31.829Z,9.60
2017-10-16T02:19:59.389Z,9.60
2017-10-16T02:22:26.935Z,9.50
2017-10-16T02:24:54.549Z,9.50
2017-10-16T02:27:22.122Z,9.50
2017-10-16T02:29:49.687Z,9.50
2017-10-16T02:32:17.299Z,9.40
2017-10-16T02:34:45.631Z,9.40
2017-10-16T02:37:13.196Z,9.40
2017-10-16T02:39:40.793Z,9.30
2017-10-16T02:42:08.361Z,9.30
2017-10-16T02:44:36.706Z,9.30
2017-10-16T02:47:04.302Z,9.20
2017-10-16T02:49:32.638Z,9.20
2017-10-16T02:52:00.192Z,9.20
2017-10-16T02:54:27.809Z,9.20
2017-10-16T02:56:56.126Z,9.00
2017-10-16T02:59:23.701Z,9.00
2017-10-16T03:01:51.293Z,9.00
2017-10-16T03:04:19.629Z,8.90
2017-10-16T03:06:47.210Z,8.80
2017-10-16T03:09:14.819Z,8.80
2017-10-16T03:11:42.404Z,8.80
2017-10-16T03:14:09.999Z,8.80
2017-10-16T03:16:39.970Z,8.80
2017-10-16T03:19:07.628Z,8.90
2017-10-16T03:21:35.194Z,8.90
2017-10-16T03:24:02.784Z,8.80
2017-10-16T03:26:30.359Z,8.80
2017-10-16T03:28:57.927Z,8.80
2017-10-16T03:31:26.270Z,8.80
2017-10-16T03:33:53.812Z,8.80
2017-10-16T03:36:21.352Z,8.80
2017-10-16T03:38:48.960Z,8.80
2017-10-16T03:41:16.531Z,8.80
2017-10-16T03:43:44.084Z,8.80
2017-10-16T03:46:11.673Z,8.70
2017-10-16T03:48:39.207Z,8.70
2017-10-16T03:51:06.773Z,8.80
2017-10-16T03:53:35.155Z,8.80
2017-10-16T03:56:02.721Z,8.70
2017-10-16T03:58:31.041Z,8.70
2017-10-16T04:00:58.629Z,8.70
2017-10-16T04:03:26.207Z,8.70
2017-10-16T04:05:53.777Z,8.60
2017-10-16T04:08:22.130Z,8.60
2017-10-16T04:10:49.702Z,8.60
2017-10-16T04:13:17.261Z,8.60
2017-10-16T04:15:44.869Z,8.60
2017-10-16T04:18:12.437Z,8.70
2017-10-16T04:20:39.977Z,8.70
2017-10-16T04:23:07.568Z,8.70
2017-10-16T04:25:35.111Z,8.60
2017-10-16T04:28:02.662Z,8.60
2017-10-16T04:30:30.273Z,8.60
2017-10-16T04:32:57.852Z,8.60
2017-10-16T04:35:26.175Z,8.50
2017-10-16T04:37:53.769Z,8.50
2017-10-16T04:40:24.535Z,8.50
2017-10-16T04:42:52.445Z,8.50
2017-10-16T04:45:21.459Z,8.50
2017-10-16T04:47:53.202Z,8.50
2017-10-16T04:50:24.581Z,8.50
2017-10-16T04:52:52.355Z,8.50
2017-10-16T04:55:21.874Z,8.50
2017-10-16T04:57:50.389Z,8.50
2017-10-16T05:00:18.073Z,8.40
2017-10-16T05:02:53.878Z,8.40
2017-10-16T05:05:24.790Z,8.40
2017-10-16T05:07:52.351Z,8.40
2017-10-16T05:10:20.260Z,8.40
2017-10-16T05:12:47.875Z,8.30
2017-10-16T05:15:16.327Z,8.30
2017-10-16T05:17:44.032Z,8.30
2017-10-16T05:20:12.371Z,8.30
2017-10-16T05:22:39.919Z,8.30
2017-10-16T05:25:07.463Z,8.30
2017-10-16T05:27:35.032Z,8.20
2017-10-16T05:30:02.584Z,8.20
2017-10-16T05:32:30.164Z,8.10
2017-10-16T05:34:57.733Z,8.00
2017-10-16T05:37:25.297Z,8.00
2017-10-16T05:39:52.850Z,8.00
2017-10-16T05:42:20.451Z,8.00
2017-10-16T05:44:48.047Z,8.00
2017-10-16T05:47:15.626Z,8.00
2017-10-16T05:49:43.217Z,7.90
2017-10-16T05:52:10.806Z,8.00
2017-10-16T05:54:38.368Z,8.00
2017-10-16T05:57:05.944Z,8.00
2017-10-16T05:59:33.492Z,8.00
2017-10-16T06:02:01.040Z,8.10
2017-10-16T06:04:28.630Z,8.10
2017-10-16T06:06:56.394Z,8.10
2017-10-16T06:09:24.015Z,8.10
2017-10-16T06:11:52.382Z,8.10
2017-10-16T06:14:19.944Z,8.10
2017-10-16T06:16:48.292Z,8.20
2017-10-16T06:19:15.922Z,8.20
2017-10-16T06:21:43.480Z,8.20
2017-10-16T06:24:11.088Z,8.30
2017-10-16T06:26:38.716Z,8.40
2017-10-16T06:29:06.298Z,8.50
2017-10-16T06:31:33.880Z,8.60
2017-10-16T06:34:02.266Z,8.90
2017-10-16T06:36:29.831Z,8.90
2017-10-16T06:38:58.159Z,9.20
2017-10-16T06:41:25.747Z,9.20
2017-10-16T06:43:53.365Z,9.40
2017-10-16T06:46:20.934Z,9.50
2017-10-16T06:48:48.521Z,9.70
2017-10-16T06:51:16.103Z,9.80
2017-10-16T06:53:44.471Z,10.20
2017-10-16T06:56:12.084Z,10.10
2017-10-16T06:58:39.656Z,10.30
2017-10-16T07:01:07.227Z,10.50
2017-10-16T07:03:34.858Z,10.60
2017-10-16T07:06:02.399Z,10.80
2017-10-16T07:08:29.957Z,10.90
2017-10-16T07:10:57.547Z,11.10
2017-10-16T07:13:25.129Z,11.30
2017-10-16T07:15:52.689Z,11.40
2017-10-16T07:18:20.303Z,11.60
2017-10-16T07:20:48.629Z,11.90
2017-10-16T07:23:16.196Z,11.90
2017-10-16T07:25:43.785Z,12.10
2017-10-16T07:28:13.052Z,12.40
2017-10-16T07:30:40.615Z,12.40
2017-10-16T07:33:08.222Z,12.60
2017-10-16T07:35:35.841Z,12.80
2017-10-16T07:38:03.416Z,13.00
2017-10-16T07:40:31.810Z,13.40
2017-10-16T07:43:00.149Z,13.60
2017-10-16T07:45:27.733Z,13.60
2017-10-16T07:47:56.093Z,14.00
2017-10-16T07:50:23.638Z,14.00
2017-10-16T07:52:51.192Z,14.20
2017-10-16T07:55:18.767Z,14.50
2017-10-16T07:57:46.321Z,14.70
2017-10-16T08:00:13.860Z,14.90
2017-10-16T08:02:41.437Z,15.20
2017-10-16T08:05:09.014Z,15.40
2017-10-16T08:07:36.565Z,15.60
2017-10-16T08:10:04.159Z,15.90
2017-10-16T08:12:32.497Z,16.30
2017-10-16T08:15:00.088Z,16.30
2017-10-16T08:17:28.431Z,16.70
2017-10-16T08:19:56.004Z,16.60
2017-10-16T08:22:23.631Z,16.90
2017-10-16T08:24:51.225Z,17.20
2017-10-16T08:27:18.794Z,17.50
2017-10-16T08:29:46.407Z,17.70
2017-10-16T08:32:14.117Z,17.80
2017-10-16T08:34:41.721Z,18.00
2017-10-16T08:37:09.325Z,18.20
2017-10-16T08:39:36.923Z,18.40
2017-10-16T08:42:05.343Z,18.70
2017-10-16T08:44:32.913Z,18.70
2017-10-16T08:47:00.535Z,18.90
2017-10-16T08:49:28.226Z,19.10
2017-10-16T08:51:55.818Z,19.30
2017-10-16T08:54:23.447Z,19.40
2017-10-16T08:56:51.016Z,19.50
2017-10-16T08:59:18.612Z,19.70
2017-10-16T09:01:46.217Z,19.80
2017-10-16T09:04:13.823Z,20.00
2017-10-16T09:06:41.435Z,20.10
2017-10-16T09:09:09.065Z,20.20
2017-10-16T09:11:37.436Z,20.40
2017-10-16T09:14:05.809Z,20.50
2017-10-16T09:16:33.419Z,20.50
2017-10-16T09:19:00.993Z,20.60
2017-10-16T09:21:28.605Z,20.70
2017-10-16T09:23:57.005Z,20.90
2017-10-16T09:26:24.745Z,20.90
2017-10-16T09:28:53.119Z,21.10
2017-10-16T09:31:21.519Z,21.20
2017-10-16T09:33:49.099Z,21.20
2017-10-16T09:36:16.672Z,21.20
2017-10-16T09:38:44.293Z,21.30
2017-10-16T09:41:12.671Z,21.50
2017-10-16T09:43:41.074Z,21.50
2017-10-16T09:46:08.697Z,21.50
2017-10-16T09:48:37.053Z,21.70
2017-10-16T09:51:04.630Z,21.70
2017-10-16T09:53:32.235Z,21.80
2017-10-16T09:55:59.811Z,22.00
2017-10-16T09:58:27.367Z,22.10
2017-10-16T10:00:55.004Z,22.30
2017-10-16T10:03:22.581Z,22.40
2017-10-16T10:05:50.166Z,22.50
2017-10-16T10:08:17.769Z,22.60
2017-10-16T10:10:45.354Z,22.70
2017-10-16T10:13:12.936Z,22.80
2017-10-16T10:15:40.529Z,22.80
2017-10-16T10:18:08.080Z,22.70
2017-10-16T10:20:35.627Z,22.80
2017-10-16T10:23:03.241Z,22.90
2017-10-16T10:25:30.821Z,22.90
2017-10-16T10:27:58.386Z,23.00
2017-10-16T10:30:25.976Z,23.10
2017-10-16T10:32:53.538Z,23.10
2017-10-16T10:35:21.080Z,23.30
2017-10-16T10:37:48.679Z,23.40
2017-10-16T10:40:17.010Z,23.70
2017-10-16T10:42:44.564Z,23.60
2017-10-16T10:45:12.181Z,23.80
2017-10-16T10:47:40.550Z,24.00
2017-10-16T10:50:08.887Z,24.10
2017-10-16T10:52:36.472Z,24.10
2017-10-16T10:55:04.079Z,24.20
2017-10-16T10:57:31.650Z,24.20
2017-10-16T10:59:59.260Z,24.20
2017-10-16T11:02:26.800Z,24.10
2017-10-16T11:04:54.374Z,24.10
2017-10-16T11:07:21.971Z,24.20
2017-10-16T11:09:49.567Z,24.20
2017-10-16T11:12:17.133Z,24.20
2017-10-16T11:14:44.730Z,24.20
2017-10-16T11:17:13.093Z,24.20
2017-10-16T11:19:40.702Z,24.10
2017-10-16T11:22:08.310Z,24.20
2017-10-16T11:24:35.934Z,24.20
2017-10-16T11:27:03.541Z,24.20
2017-10-16T11:29:31.255Z,24.20
2017-10-16T11:31:58.886Z,24.20
2017-10-16T11:34:27.276Z,24.30
2017-10-16T11:36:54.946Z,24.30
2017-10-16T11:39:22.522Z,24.30
2017-10-16T11:41:50.126Z,24.50
2017-10-16T11:44:17.743Z,24.90
2017-10-16T11:46:45.308Z,25.20
2017-10-16T11:49:12.889Z,25.60
2017-10-16T11:51:41.295Z,26.30
2017-10-16T11:54:09.667Z,26.50
2017-10-16T11:56:37.293Z,26.50
2017-10-16T11:59:04.923Z,26.70
2017-10-16T12:01:32.538Z,26.80
2017-10-16T12:04:00.127Z,26.80
2017-10-16T12:06:28.533Z,26.90
2017-10-16T12:08:56.129Z,26.90
2017-10-16T12:11:23.739Z,26.90
2017-10-16T12:13:51.400Z,26.80
2017-10-16T12:16:19.027Z,26.70
2017-10-16T12:18:46.609Z,26.50
2017-10-16T12:21:15.003Z,26.20
2017-10-16T12:23:42.590Z,26.10
2017-10-16T12:26:10.244Z,26.10
2017-10-16T12:28:37.865Z,25.90
2017-10-16T12:31:06.223Z,25.70
2017-10-16T12:33:33.822Z,25.70
2017-10-16T12:36:01.461Z,25.70
2017-10-16T12:38:29.845Z,25.50
2017-10-16T12:40:58.211Z,25.40
2017-10-16T12:43:25.839Z,25.40
2017-10-16T12:45:53.431Z,25.40
2017-10-16T12:48:21.049Z,25.30
2017-10-16T12:50:48.689Z,25.30
2017-10-16T12:53:16.281Z,25.20
2017-10-16T12:55:43.859Z,25.20
2017-10-16T12:58:11.490Z,25.10
2017-10-16T13:00:39.073Z,25.10
2017-10-16T13:03:06.668Z,25.10
2017-10-16T13:05:35.066Z,25.00
2017-10-16T13:08:02.661Z,25.00
2017-10-16T13:10:30.230Z,25.00
2017-10-16T13:12:57.842Z,25.00
2017-10-16T13:15:26.208Z,24.90
2017-10-16T13:17:55.339Z,24.90
2017-10-16T13:20:22.978Z,24.90
2017-10-16T13:22:50.590Z,24.90
2017-10-16T13:25:18.168Z,24.90
2017-10-16T13:27:45.781Z,24.80
2017-10-16T13:30:13.422Z,24.80
2017-10-16T13:32:41.014Z,24.80
2017-10-16T13:35:08.785Z,24.80
2017-10-16T13:37:36.398Z,24.80
2017-10-16T13:40:04.762Z,24.70
2017-10-16T13:42:32.385Z,24.70
2017-10-16T13:45:00.201Z,24.70
2017-10-16T13:47:28.544Z,24.60
2017-10-16T13:49:56.161Z,24.60
2017-10-16T13:52:23.764Z,24.60
2017-10-16T13:54:51.344Z,24.60
2017-10-16T13:57:18.957Z,24.70
2017-10-16T13:59:50.371Z,24.90
2017-10-16T14:02:18.737Z,25.00
2017-10-16T14:04:47.108Z,25.10
2017-10-16T14:07:14.680Z,25.10
2017-10-16T14:09:43.076Z,25.10
2017-10-16T14:12:11.429Z,25.10
2017-10-16T14:14:39.055Z,25.10
2017-10-16T14:17:06.662Z,25.10
2017-10-16T14:19:35.019Z,25.00
2017-10-16T14:22:02.603Z,25.00
2017-10-16T14:24:30.996Z,24.90
2017-10-16T14:26:58.563Z,24.90
2017-10-16T14:29:26.145Z,24.90
2017-10-16T14:31:53.805Z,25.00
2017-10-16T14:34:21.446Z,24.90
2017-10-16T14:36:49.058Z,24.90
2017-10-16T14:39:16.686Z,24.80
2017-10-16T14:41:45.258Z,24.70
2017-10-16T14:44:13.824Z,24.60
2017-10-16T14:46:43.004Z,24.40
2017-10-16T14:49:11.974Z,24.30
2017-10-16T14:51:40.734Z,24.20
2017-10-16T14:54:10.033Z,24.20
2017-10-16T14:56:38.446Z,24.00
2017-10-16T14:59:07.735Z,24.00
2017-10-16T15:01:35.436Z,23.80
2017-10-16T15:04:03.813Z,23.70
2017-10-16T15:06:32.177Z,23.60
2017-10-16T15:08:59.817Z,23.50
2017-10-16T15:11:27.388Z,23.40
2017-10-16T15:13:54.981Z,23.30
2017-10-16T15:16:23.371Z,23.10
2017-10-16T15:18:50.962Z,23.00
2017-10-16T15:21:18.540Z,23.00
2017-10-16T15:23:46.161Z,22.80
2017-10-16T15:26:13.767Z,22.70
2017-10-16T15:28:41.367Z,22.60
2017-10-16T15:31:09.072Z,22.40
2017-10-16T15:33:36.667Z,22.30
2017-10-16T15:36:05.659Z,22.00
2017-10-16T15:38:34.692Z,22.00
2017-10-16T15:41:03.672Z,21.80
2017-10-16T15:43:32.406Z,21.60
2017-10-16T15:46:01.427Z,21.50
2017-10-16T15:48:29.848Z,21.30
2017-10-16T15:50:59.335Z,21.00
2017-10-16T15:53:27.732Z,21.00
2017-10-16T15:55:57.764Z,20.70
2017-10-16T15:58:26.282Z,20.70
2017-10-16T16:00:55.273Z,20.60
2017-10-16T16:03:24.306Z,20.40
2017-10-16T16:05:53.120Z,20.30
2017-10-16T16:08:22.219Z,20.10
2017-10-16T16:10:52.035Z,20.00
2017-10-16T16:13:20.990Z,19.80
2017-10-16T16:15:50.142Z,19.50
2017-10-16T16:18:19.185Z,19.50
2017-10-16T16:20:47.735Z,19.40
2017-10-16T16:23:16.156Z,19.30
2017-10-16T16:25:45.452Z,19.20
2017-10-16T16:28:14.340Z,19.10
2017-10-16T16:30:43.953Z,18.80
2017-10-16T16:33:13.887Z,18.80
2017-10-16T16:35:44.005Z,18.80
2017-10-16T16:38:12.452Z,18.70
2017-10-16T16:40:41.925Z,18.60
2017-10-16T16:43:11.629Z,18.50
2017-10-16T16:45:41.127Z,18.40
2017-10-16T16:48:09.844Z,18.40
2017-10-16T16:50:39.578Z,18.30
2017-10-16T16:53:08.288Z,18.20
2017-10-16T16:55:37.384Z,18.10
2017-10-16T16:58:06.286Z,18.00
2017-10-16T17:00:34.734Z,17.90
2017-10-16T17:03:04.438Z,17.70
2017-10-16T17:05:33.693Z,17.70
2017-10-16T17:08:01.317Z,17.70
2017-10-16T17:10:28.887Z,17.70
2017-10-16T17:12:56.501Z,17.60
2017-10-16T17:15:26.139Z,17.60
2017-10-16T17:17:53.804Z,17.50
2017-10-16T17:20:21.423Z,17.50
2017-10-16T17:22:49.787Z,17.50
2017-10-16T17:25:17.369Z,17.50
2017-10-16T17:27:45.777Z,17.40
2017-10-16T17:30:13.393Z,17.40
2017-10-16T17:32:40.970Z,17.40
2017-10-16T17:35:09.414Z,17.40
2017-10-16T17:37:36.990Z,17.40
2017-10-16T17:40:04.571Z,17.30
2017-10-16T17:42:32.982Z,17.20
2017-10-16T17:45:00.581Z,17.10
2017-10-16T17:47:28.166Z,17.00
2017-10-16T17:49:56.515Z,16.90
2017-10-16T17:52:24.099Z,16.90
2017-10-16T17:54:52.494Z,16.80
2017-10-16T17:57:21.566Z,16.70
2017-10-16T17:59:49.240Z,16.70
2017-10-16T18:02:16.814Z,16.60
2017-10-16T18:04:44.452Z,16.50
2017-10-16T18:07:12.856Z,16.30
2017-10-16T18:09:40.471Z,16.30
2017-10-16T18:12:08.135Z,16.30
2017-10-16T18:14:35.713Z,16.10
2017-10-16T18:17:04.037Z,16.00
2017-10-16T18:19:31.661Z,16.00
2017-10-16T18:22:00.026Z,15.90
2017-10-16T18:24:27.620Z,15.90
2017-10-16T18:26:55.263Z,15.90
2017-10-16T18:29:23.639Z,15.80
2017-10-16T18:31:51.995Z,15.80
2017-10-16T18:34:19.622Z,15.80
2017-10-16T18:36:47.267Z,15.70
2017-10-16T18:39:14.845Z,15.70
2017-10-16T18:41:42.454Z,15.60
2017-10-16T18:44:10.809Z,15.50
2017-10-16T18:46:38.364Z,15.50
2017-10-16T18:49:05.974Z,15.50
2017-10-16T18:51:35.024Z,15.30
2017-10-16T18:54:02.649Z,15.30
2017-10-16T18:56:31.873Z,15.20
2017-10-16T18:58:59.913Z,15.10
2017-10-16T19:01:27.493Z,15.10
2017-10-16T19:03:55.617Z,15.00
2017-10-16T19:06:23.985Z,14.90
2017-10-16T19:08:51.919Z,14.90
2017-10-16T19:11:19.546Z,14.80
2017-10-16T19:13:47.169Z,14.80
2017-10-16T19:16:15.007Z,14.60
2017-10-16T19:18:43.668Z,14.60
2017-10-16T19:21:11.303Z,14.50
2017-10-16T19:23:40.071Z,14.50
2017-10-16T19:26:07.669Z,14.40
2017-10-16T19:28:35.253Z,14.30
2017-10-16T19:31:03.071Z,14.20
2017-10-16T19:33:30.763Z,14.20
2017-10-16T19:35:58.387Z,14.10
2017-10-16T19:38:26.000Z,14.10
2017-10-16T19:40:53.639Z,14.00
2017-10-16T19:43:21.221Z,14.00
2017-10-16T19:45:48.813Z,13.90
2017-10-16T19:48:16.432Z,13.90
2017-10-16T19:50:44.026Z,13.90
2017-10-16T19:53:12.697Z,13.80
2017-10-16T19:55:40.350Z,13.80
2017-10-16T19:58:07.947Z,13.70
2017-10-16T20:00:35.598Z,13.70
2017-10-16T20:03:04.148Z,13.60
2017-10-16T20:05:31.790Z,13.60
2017-10-16T20:07:59.481Z,13.60
2017-10-16T20:10:27.139Z,13.50
2017-10-16T20:12:54.769Z,13.50
2017-10-16T20:15:23.163Z,13.40
2017-10-16T20:17:50.767Z,13.40
2017-10-16T20:20:18.357Z,13.40
2017-10-16T20:22:46.820Z,13.20
2017-10-16T20:25:15.246Z,13.10
2017-10-16T20:27:43.097Z,13.10
2017-10-16T20:30:11.452Z,13.00
2017-10-16T20:32:39.294Z,13.00
2017-10-16T20:35:06.905Z,13.00
2017-10-16T20:37:35.260Z,12.90
2017-10-16T20:40:02.895Z,12.90
2017-10-16T20:42:30.496Z,12.90
2017-10-16T20:44:58.872Z,12.90
2017-10-16T20:47:27.278Z,12.80
2017-10-16T20:49:54.869Z,12.80
2017-10-16T20:52:22.452Z,12.80
2017-10-16T20:54:50.099Z,12.80
2017-10-16T20:57:17.711Z,12.70
2017-10-16T20:59:45.306Z,12.70
2017-10-16T21:02:12.917Z,12.70
2017-10-16T21:04:41.278Z,12.60
2017-10-16T21:07:08.899Z,12.50
2017-10-16T21:09:36.521Z,12.50
2017-10-16T21:12:04.125Z,12.50
2017-10-16T21:14:32.519Z,12.40
2017-10-16T21:17:00.149Z,12.30
2017-10-16T21:19:27.729Z,12.30
2017-10-16T21:21:55.315Z,12.30
2017-10-16T21:24:22.923Z,12.30
2017-10-16T21:26:50.528Z,12.30
2017-10-16T21:29:18.105Z,12.20
2017-10-16T21:31:46.474Z,12.10
2017-10-16T21:34:14.073Z,12.20
2017-10-16T21:36:41.653Z,12.10
2017-10-16T21:39:09.281Z,12.10
2017-10-16T21:41:37.674Z,12.10
2017-10-16T21:44:05.284Z,12.00
2017-10-16T21:46:32.930Z,12.10
2017-10-16T21:49:00.503Z,12.00
2017-10-16T21:51:28.126Z,11.90
2017-10-16T21:53:55.752Z,11.90
2017-10-16T21:56:24.117Z,11.90
2017-10-16T21:58:51.709Z,11.90
2017-10-16T22:01:19.296Z,11.80
2017-10-16T22:03:46.893Z,11.80
2017-10-16T22:06:14.528Z,11.80
2017-10-16T22:08:42.149Z,11.80
2017-10-16T22:11:09.744Z,11.80
2017-10-16T22:13:37.371Z,11.70
2017-10-16T22:16:05.003Z,11.70
2017-10-16T22:18:32.575Z,11.60
2017-10-16T22:21:00.197Z,11.60
2017-10-16T22:23:27.819Z,11.50
2017-10-16T22:25:55.408Z,11.50
2017-10-16T22:28:22.984Z,11.50
2017-10-16T22:30:50.639Z,11.40
2017-10-16T22:33:18.264Z,11.40
2017-10-16T22:35:45.848Z,11.40
2017-10-16T22:38:13.462Z,11.30
2017-10-16T22:40:41.047Z,11.30
2017-10-16T22:43:08.642Z,11.20
2017-10-16T22:45:36.262Z,11.20
2017-10-16T22:48:03.858Z,11.20
2017-10-16T22:50:31.431Z,11.20
2017-10-16T22:52:59.063Z,11.10
2017-10-16T22:55:26.687Z,11.10
2017-10-16T22:57:55.019Z,11.00
2017-10-16T23:00:22.656Z,11.00
2017-10-16T23:02:50.279Z,11.10
2017-10-16T23:05:17.874Z,11.00
2017-10-16T23:07:45.496Z,11.00
2017-10-16T23:10:13.089Z,11.00
2017-10-16T23:12:40.681Z,10.90
2017-10-16T23:15:08.286Z,10.90
2017-10-16T23:17:36.661Z,10.90
2017-10-16T23:20:05.036Z,10.80
2017-10-16T23:22:33.430Z,10.80
2017-10-16T23:25:01.821Z,10.70
2017-10-16T23:27:29.399Z,10.70
2017-10-16T23:29:58.589Z,10.70
2017-10-16T23:32:28.223Z,10.70
2017-10-16T23:34:55.840Z,10.60
2017-10-16T23:37:23.461Z,10.60
2017-10-16T23:39:51.076Z,10.60
2017-10-16T23:42:18.698Z,10.60
2017-10-16T23:44:46.322Z,10.60
2017-10-16T23:47:13.919Z,10.50
2017-10-16T23:49:41.514Z,10.50
2017-10-16T23:52:09.143Z,10.40
2017-10-16T23:54:36.768Z,10.40
2017-10-16T23:57:04.365Z,10.30
2017-10-16T23:59:31.972Z,10.30
